EDT,Max TemperatureF,Mean TemperatureF,Min TemperatureF,Max Dew PointF,MeanDew PointF,Min DewpointF,Max Humidity, Mean Humidity, Min Humidity, Max Sea Level PressureIn, Mean Sea Level PressureIn, Min Sea Level PressureIn, Max VisibilityMiles, Mean VisibilityMiles, Min VisibilityMiles, Max Wind SpeedMPH, Mean Wind SpeedMPH, Max Gust SpeedMPH,PrecipitationIn, CloudCover, Events, WindDirDegrees
2013-5-1,85,80,75,73,71,66,74,70,65,29.99,29.95,29.89,10,8,1,14,5,18,1.58,5,Rain-Thunderstorm,122
2013-5-2,85,77,69,72,68,63,84,73,61,29.96,29.90,29.82,10,6,0,29,7,36,2.23,6,Rain-Thunderstorm,54
2013-5-3,88,79,69,72,69,64,84,70,55,29.83,29.77,29.72,10,9,2,16,5,24,0.04,2,Rain-Thunderstorm,257
2013-5-4,86,81,76,67,65,57,67,58,48,29.86,29.79,29.73,10,10,10,18,12,26,0.00,3,,298
2013-5-5,82,79,75,63,58,56,60,54,47,29.96,29.89,29.81,10,10,10,17,12,24,0.00,3,,298
2013-5-6,83,78,72,62,60,58,64,55,46,30.04,30.00,29.94,10,10,10,12,6,18,0.00,0,,329
2013-5-7,84,77,69,64,62,61,73,60,47,30.09,30.04,29.99,10,10,10,10,4,12,0.00,0,,311
2013-5-8,85,78,70,67,64,61,73,62,51,30.14,30.10,30.07,10,10,10,8,2,12,0.00,1,,53
2013-5-9,88,82,76,71,67,62,74,63,51,30.14,30.10,30.06,10,10,10,14,8,21,0.00,1,,53
2013-5-10,90,85,80,74,72,70,74,65,56,30.12,30.07,30.02,10,10,10,9,5,15,0.00,2,,120
2013-5-11,90,85,80,72,71,70,74,65,55,30.08,30.04,30.01,10,10,10,12,7,25,0.00,1,,150
2013-5-12,90,85,79,71,69,67,74,63,52,30.06,30.02,29.99,10,10,10,13,5,20,0.00,0,,143
2013-5-13,89,84,78,73,71,67,74,65,55,30.11,30.07,30.00,10,10,10,13,5,20,0.00,4,,334
2013-5-14,87,83,79,70,65,58,74,60,45,30.14,30.10,30.04,10,10,10,21,13,26,0.00,2,,52
2013-5-15,86,82,77,65,60,56,62,52,42,30.16,30.11,30.07,10,10,10,17,11,24,0.00,3,,72
2013-5-16,87,82,77,63,62,61,58,51,43,30.09,30.05,30.01,10,10,10,13,8,20,0.00,1,,92
2013-5-17,90,83,75,72,69,63,74,63,52,30.08,30.05,30.01,10,10,10,13,5,16,0.00,2,,83
2013-5-18,91,86,80,71,70,69,69,61,52,30.10,30.06,30.03,10,10,10,10,6,16,0.00,1,,120
2013-5-19,90,86,81,70,69,67,69,60,50,30.09,30.04,29.99,10,10,10,13,7,17,0.00,1,,102
2013-5-20,90,81,72,73,70,66,79,68,56,30.04,30.01,29.97,10,8,0,22,7,30,1.29,2,Rain-Thunderstorm,93
2013-5-21,88,84,80,73,71,69,74,67,59,30.00,29.95,29.91,10,9,2,12,7,16,0.00,2,,110
2013-5-22,92,87,81,75,71,63,74,60,45,29.97,29.93,29.89,10,10,7,10,5,20,0.01,2,Rain-Thunderstorm,183
2013-5-23,91,86,80,74,72,69,74,63,52,30.03,29.99,29.94,10,10,10,12,5,17,0.00,0,,263
2013-5-24,91,85,79,72,70,66,74,63,52,30.07,30.03,29.97,10,10,10,21,4,29,0.00,2,,313
2013-5-25,91,85,79,70,68,62,74,61,48,30.13,30.08,30.03,10,10,10,20,10,25,0.00,1,,68
2013-5-26,90,85,80,66,64,60,62,52,41,30.14,30.11,30.07,10,10,10,17,11,25,0.00,1,,77
2013-5-27,85,80,74,74,70,66,87,73,58,30.12,30.07,30.01,10,5,0,22,10,30,2.70,7,Rain-Thunderstorm,114
2013-5-28,85,82,78,73,71,65,74,65,55,30.07,30.04,30.01,10,10,5,16,9,25,0.03,4,Rain-Thunderstorm,106
2013-5-29,82,78,74,73,71,68,87,76,65,30.04,30.01,29.98,10,7,0,17,8,29,2.40,7,Rain-Thunderstorm,101
2013-5-30,84,79,74,75,72,69,87,78,69,30.03,30.00,29.96,10,7,0,13,5,20,1.59,7,Rain-Thunderstorm,101
2013-5-31,89,83,76,73,72,68,82,73,63,30.03,30.01,29.97,10,10,4,12,4,18,0.00,3,,105